Time;durP1;ratioP1;P1;durP2;ratioP2;P2;SDS_P1;SDS_P2;PMS_P1;PMS_P2;Temp;Humidity;BMP_temperature;BMP_pressure;BME280_temperature;BME280_humidity;BME280_pressure;Samples;Min_cycle;Max_cycle;Signal;HPM_P1;HPM_P2
2022/01/17 06:16:48;;;;;;;46.47;21.80;;;8.40;66.20;;;;;;6304393;22;1353982;-56
2022/01/17 06:19:15;;;;;;;50.42;22.55;;;8.40;66.20;;;;;;6302451;22;20000;-58
2022/01/17 06:21:41;;;;;;;54.92;22.88;;;8.40;66.10;;;;;;6301758;22;19999;-56
2022/01/17 06:24:09;;;;;;;49.13;23.27;;;8.40;66.00;;;;;;6252670;22;20195;-58
2022/01/17 06:26:40;;;;;;;48.58;22.10;;;8.30;66.00;;;;;;6184245;23;20009;-56
2022/01/17 06:29:08;;;;;;;49.97;23.50;;;8.40;66.70;;;;;;6210721;23;19996;-57
2022/01/17 06:31:35;;;;;;;47.75;21.13;;;8.40;65.90;;;;;;6210480;23;20555;-56
2022/01/17 06:34:03;;;;;;;48.17;22.52;;;8.40;65.80;;;;;;6211753;22;20381;-55
2022/01/17 06:36:30;;;;;;;44.60;21.25;;;8.40;65.80;;;;;;6204000;23;20001;-56
2022/01/17 06:38:56;;;;;;;43.97;20.65;;;8.30;65.60;;;;;;6202393;22;20019;-56
2022/01/17 06:41:23;;;;;;;44.00;20.83;;;8.40;65.70;;;;;;6202422;23;20000;-58
2022/01/17 06:43:50;;;;;;;47.78;20.52;;;8.30;65.60;;;;;;6204445;23;20000;-56
2022/01/17 06:46:16;;;;;;;38.70;20.70;;;8.30;65.50;;;;;;6202781;23;20004;-58
2022/01/17 06:48:43;;;;;;;44.70;21.25;;;8.40;65.60;;;;;;6202795;23;20005;-56
2022/01/17 06:51:09;;;;;;;43.05;20.08;;;8.30;65.40;;;;;;6203291;23;20005;-55
2022/01/17 06:53:35;;;;;;;45.08;21.17;;;8.30;65.40;;;;;;6203005;23;19997;-56
2022/01/17 06:56:01;;;;;;;44.00;21.27;;;8.30;65.30;;;;;;6202715;23;20008;-58
2022/01/17 06:58:28;;;;;;;40.67;19.23;;;8.30;65.30;;;;;;6201637;23;20304;-58
2022/01/17 07:00:54;;;;;;;45.45;20.73;;;8.30;65.20;;;;;;6202775;23;20425;-56
2022/01/17 07:03:21;;;;;;;43.95;19.80;;;8.30;65.00;;;;;;6200139;23;20004;-58
2022/01/17 07:05:47;;;;;;;41.58;19.50;;;8.30;64.90;;;;;;6202427;23;20338;-57
2022/01/17 07:08:13;;;;;;;40.97;19.85;;;8.30;64.90;;;;;;6201042;23;20024;-57
2022/01/17 07:10:40;;;;;;;50.35;21.42;;;8.30;64.90;;;;;;6203661;23;20004;-57
2022/01/17 07:13:06;;;;;;;40.47;18.85;;;8.30;65.00;;;;;;6203797;23;20004;-55
2022/01/17 07:15:32;;;;;;;39.53;19.85;;;8.30;64.90;;;;;;6202559;23;20001;-56
2022/01/17 07:17:58;;;;;;;43.22;19.15;;;8.30;64.80;;;;;;6198012;23;20016;-58
2022/01/17 07:20:25;;;;;;;42.05;18.95;;;8.30;64.80;;;;;;6203188;23;20012;-58
2022/01/17 07:22:51;;;;;;;39.42;19.17;;;8.30;64.70;;;;;;6203177;23;19997;-57
2022/01/17 07:25:17;;;;;;;39.42;19.55;;;8.40;64.70;;;;;;6204140;23;20763;-57
2022/01/17 07:27:44;;;;;;;39.00;18.90;;;8.30;64.60;;;;;;6201822;23;19996;-57
2022/01/17 07:30:11;;;;;;;39.25;17.55;;;8.30;64.50;;;;;;6202112;23;20374;-56
2022/01/17 07:32:37;;;;;;;40.08;18.40;;;8.30;64.50;;;;;;6201963;23;20299;-58
2022/01/17 07:35:05;;;;;;;39.53;19.25;;;8.30;64.40;;;;;;6202582;23;20000;-56
2022/01/17 07:37:32;;;;;;;41.65;18.65;;;8.40;64.40;;;;;;6202329;23;20017;-55
2022/01/17 07:39:58;;;;;;;39.88;18.75;;;8.30;64.30;;;;;;6202482;23;20015;-57
2022/01/17 07:42:24;;;;;;;39.08;18.30;;;8.40;64.50;;;;;;6201824;23;20016;-56
2022/01/17 07:44:55;;;;;;;41.60;19.05;;;8.40;64.40;;;;;;6204249;23;20373;-56
2022/01/17 07:47:43;;;;;;;40.63;18.05;;;8.40;64.30;;;;;;6199474;23;20008;-58
2022/01/17 07:50:15;;;;;;;44.55;17.27;;;8.40;64.20;;;;;;6207875;22;20023;-58
2022/01/17 07:52:42;;;;;;;33.28;17.27;;;8.40;64.10;;;;;;6231497;23;20012;-58
2022/01/17 07:55:10;;;;;;;34.33;16.83;;;8.40;64.00;;;;;;6233203;22;20000;-58
2022/01/17 07:57:37;;;;;;;34.35;16.42;;;8.40;64.10;;;;;;6232833;23;20003;-56
2022/01/17 08:00:06;;;;;;;39.50;17.77;;;8.40;64.00;;;;;;6233036;23;20000;-57
2022/01/17 08:02:33;;;;;;;34.47;16.73;;;8.50;63.90;;;;;;6231522;23;19992;-57
2022/01/17 08:04:59;;;;;;;34.65;17.30;;;8.50;63.80;;;;;;6231316;23;20437;-58
2022/01/17 08:07:25;;;;;;;34.65;16.65;;;8.50;64.30;;;;;;6231669;23;20000;-56
2022/01/17 08:09:52;;;;;;;29.40;16.48;;;8.50;63.50;;;;;;6233279;23;19996;-57
2022/01/17 08:12:18;;;;;;;36.33;16.00;;;8.50;63.40;;;;;;6234441;23;20421;-58
2022/01/17 08:14:44;;;;;;;32.30;15.30;;;8.50;63.40;;;;;;6232667;23;20030;-58
2022/01/17 08:17:11;;;;;;;32.58;15.10;;;8.50;63.30;;;;;;6229739;22;20008;-58
2022/01/17 08:19:38;;;;;;;29.17;14.63;;;8.50;63.20;;;;;;6233242;22;20008;-58
2022/01/17 08:22:06;;;;;;;32.60;15.73;;;8.50;63.10;;;;;;6235024;23;20000;-56
2022/01/17 08:24:36;;;;;;;30.25;14.75;;;8.60;63.00;;;;;;6234263;22;20008;-57
2022/01/17 08:27:02;;;;;;;27.70;14.15;;;8.50;62.70;;;;;;6231566;23;19996;-57
2022/01/17 08:29:29;;;;;;;32.33;15.15;;;8.60;62.80;;;;;;6233294;23;19992;-58
2022/01/17 08:31:58;;;;;;;36.17;15.85;;;8.60;62.80;;;;;;6229464;23;20322;-55
2022/01/17 08:34:24;;;;;;;31.80;14.25;;;8.60;62.80;;;;;;6231549;22;20015;-56
2022/01/17 08:36:50;;;;;;;34.90;15.48;;;8.60;62.70;;;;;;6234088;23;19992;-57
2022/01/17 08:39:17;;;;;;;31.85;14.30;;;8.60;62.60;;;;;;6232486;22;20007;-58
2022/01/17 08:41:43;;;;;;;30.05;14.73;;;8.70;62.60;;;;;;6229899;23;20004;-55
2022/01/17 08:44:13;;;;;;;31.42;15.43;;;8.70;62.50;;;;;;6233469;23;20003;-54
2022/01/17 08:46:40;;;;;;;29.67;14.07;;;8.70;62.10;;;;;;6228702;22;20422;-57
2022/01/17 08:49:06;;;;;;;29.77;14.25;;;8.70;62.10;;;;;;6231826;23;19996;-58
2022/01/17 08:51:33;;;;;;;27.35;13.85;;;8.70;62.10;;;;;;6232861;23;20011;-56
2022/01/17 08:53:59;;;;;;;26.27;12.50;;;8.70;62.00;;;;;;6232705;23;20008;-54
2022/01/17 08:56:28;;;;;;;30.95;14.20;;;8.80;62.00;;;;;;6233565;23;20135;-56
2022/01/17 08:58:55;;;;;;;26.25;12.50;;;8.80;61.70;;;;;;6229841;22;20000;-55
2022/01/17 09:01:22;;;;;;;25.13;12.95;;;8.80;61.60;;;;;;6232062;23;20015;-57
2022/01/17 09:03:49;;;;;;;27.25;12.75;;;8.80;61.60;;;;;;6229702;22;20000;-56
2022/01/17 09:06:16;;;;;;;25.65;12.52;;;8.90;61.40;;;;;;6232562;23;20012;-57
2022/01/17 09:08:42;;;;;;;27.60;12.07;;;8.90;61.10;;;;;;6232879;23;20007;-58
2022/01/17 09:11:09;;;;;;;26.25;12.70;;;8.90;61.00;;;;;;6232288;23;20004;-56
2022/01/17 09:13:35;;;;;;;30.15;11.55;;;8.90;61.00;;;;;;6229735;23;20000;-55
2022/01/17 09:16:02;;;;;;;26.75;12.02;;;9.00;61.10;;;;;;6232918;23;20012;-57
2022/01/17 09:18:29;;;;;;;30.65;11.20;;;9.00;60.90;;;;;;6230561;22;20027;-57
2022/01/17 09:20:55;;;;;;;26.92;12.55;;;9.00;60.80;;;;;;6232406;23;20004;-57
2022/01/17 09:23:22;;;;;;;23.52;12.13;;;9.00;60.80;;;;;;6231801;23;20008;-56
2022/01/17 09:25:48;;;;;;;28.63;13.25;;;9.00;60.70;;;;;;6233658;23;20000;-56
2022/01/17 09:28:14;;;;;;;26.77;11.95;;;9.10;60.40;;;;;;6230257;23;20333;-56
2022/01/17 09:30:41;;;;;;;31.52;12.50;;;9.10;60.20;;;;;;6233675;23;20008;-54
2022/01/17 09:33:07;;;;;;;28.85;13.32;;;9.10;60.40;;;;;;6228002;22;20341;-58
2022/01/17 09:35:34;;;;;;;25.92;12.55;;;9.10;60.40;;;;;;6230415;23;20003;-57
2022/01/17 09:38:00;;;;;;;25.83;13.20;;;9.10;60.50;;;;;;6231916;23;20329;-57
2022/01/17 09:40:27;;;;;;;29.65;14.77;;;9.10;60.50;;;;;;6233861;23;20012;-55
2022/01/17 09:42:56;;;;;;;37.58;15.95;;;9.10;60.50;;;;;;6231794;23;19996;-55
2022/01/17 09:45:23;;;;;;;32.20;15.52;;;9.20;60.60;;;;;;6230223;23;20004;-56
2022/01/17 09:47:50;;;;;;;33.72;16.63;;;9.20;60.50;;;;;;6229254;23;20000;-54
2022/01/17 09:50:21;;;;;;;32.20;15.73;;;9.20;60.50;;;;;;6233602;23;19993;-57
2022/01/17 09:52:50;;;;;;;39.20;18.10;;;9.10;60.60;;;;;;6231474;23;20008;-53
2022/01/17 09:55:21;;;;;;;36.47;17.52;;;9.10;60.70;;;;;;6232465;22;20436;-57
2022/01/17 09:57:50;;;;;;;46.33;21.10;;;9.10;60.90;;;;;;6232722;22;20357;-57
2022/01/17 10:00:19;;;;;;;41.67;20.05;;;9.20;61.10;;;;;;6233569;23;19996;-56
2022/01/17 10:02:45;;;;;;;43.65;21.23;;;9.10;61.20;;;;;;6229534;23;20012;-58
2022/01/17 10:05:13;;;;;;;42.97;20.58;;;9.10;61.40;;;;;;6230859;23;20012;-58
2022/01/17 10:08:01;;;;;;;45.05;20.17;;;9.10;61.60;;;;;;6231331;23;20000;-56
2022/01/17 10:10:49;;;;;;;41.92;21.30;;;9.10;61.70;;;;;;6234915;23;20421;-57
2022/01/17 10:13:24;;;;;;;41.60;20.67;;;9.10;61.70;;;;;;6235019;22;20004;-58
2022/01/17 10:16:12;;;;;;;45.85;21.55;;;9.10;62.00;;;;;;6234919;23;20000;-57
2022/01/17 10:18:46;;;;;;;49.08;22.35;;;9.10;62.20;;;;;;6233620;22;20015;-58
2022/01/17 10:21:21;;;;;;;;;;;9.10;62.40;;;;;;6245765;23;20000;-55
2022/01/17 10:26:57;;;;;;;46.63;22.17;;;9.20;62.40;;;;;;6229171;23;20192;-58
2022/01/17 10:35:19;;;;;;;48.58;24.90;;;9.20;63.10;;;;;;6239627;23;20007;-57
2022/01/17 10:37:57;;;;;;;48.80;22.70;;;9.20;63.20;;;;;;6227083;23;20329;-58
2022/01/17 10:40:24;;;;;;;45.97;23.67;;;9.20;63.20;;;;;;6228087;23;20328;-58
2022/01/17 10:42:51;;;;;;;51.03;24.45;;;9.20;63.20;;;;;;6227782;23;20008;-55
2022/01/17 10:45:29;;;;;;;57.38;24.90;;;9.30;63.40;;;;;;6228421;23;20000;-57
2022/01/17 10:47:58;;;;;;;52.78;24.52;;;9.30;63.40;;;;;;6225648;22;20868;-54
2022/01/17 10:50:43;;;;;;;54.17;24.80;;;9.30;63.40;;;;;;6230587;23;20325;-57
2022/01/17 10:53:12;;;;;;;54.30;25.42;;;9.30;63.70;;;;;;6244304;23;20004;-57
2022/01/17 10:55:44;;;;;;;56.65;25.73;;;9.20;63.70;;;;;;6231568;23;20000;-57
2022/01/17 10:58:13;;;;;;;45.65;23.08;;;9.20;64.00;;;;;;6230228;23;20011;-56
2022/01/17 11:00:43;;;;;;;51.55;25.10;;;9.20;64.20;;;;;;6233717;23;20007;-56
2022/01/17 11:03:13;;;;;;;53.67;26.42;;;9.20;64.40;;;;;;6230543;23;19997;-54
2022/01/17 11:05:41;;;;;;;50.90;25.10;;;9.20;64.50;;;;;;6233291;23;20004;-56
2022/01/17 11:08:08;;;;;;;57.05;27.88;;;9.20;64.70;;;;;;6233727;23;20001;-58
2022/01/17 11:10:39;;;;;;;59.10;26.67;;;9.20;64.80;;;;;;6235223;23;19997;-56
2022/01/17 11:13:16;;;;;;;55.90;26.33;;;9.10;64.90;;;;;;6242629;23;20527;-56
2022/01/17 11:15:46;;;;;;;54.25;27.25;;;9.20;65.20;;;;;;6234479;23;20000;-57
2022/01/17 11:18:20;;;;;;;54.25;26.13;;;9.10;65.10;;;;;;6230171;22;20012;-54
2022/01/17 11:20:49;;;;;;;54.40;26.52;;;9.10;65.10;;;;;;6244204;23;20436;-56
2022/01/17 11:23:16;;;;;;;51.53;25.73;;;9.10;65.10;;;;;;6231631;23;20012;-57
2022/01/17 11:25:44;;;;;;;48.28;24.63;;;9.10;65.20;;;;;;6234913;23;20004;-58
2022/01/17 11:28:14;;;;;;;47.95;24.55;;;9.10;65.40;;;;;;6232004;23;19996;-55
2022/01/17 11:30:41;;;;;;;47.70;24.40;;;9.10;65.50;;;;;;6234464;22;20007;-58
2022/01/17 11:33:09;;;;;;;47.63;25.45;;;9.20;65.50;;;;;;6230677;23;20321;-56
2022/01/17 11:35:41;;;;;;;52.50;24.20;;;9.20;65.40;;;;;;6232955;23;19996;-56
2022/01/17 11:38:11;;;;;;;51.40;25.35;;;9.20;65.50;;;;;;6244980;23;20003;-57
2022/01/17 11:40:39;;;;;;;54.95;26.02;;;9.20;65.40;;;;;;6234522;23;20007;-58
2022/01/17 11:43:22;;;;;;;52.72;25.05;;;9.20;65.30;;;;;;6233485;23;20397;-55
2022/01/17 11:45:51;;;;;;;50.78;25.20;;;9.30;65.40;;;;;;6244485;23;20004;-56
2022/01/17 11:48:23;;;;;;;48.35;25.70;;;9.30;65.30;;;;;;6231884;23;19992;-56
2022/01/17 11:50:52;;;;;;;50.28;25.25;;;9.30;65.20;;;;;;6243070;23;20329;-58
2022/01/17 11:53:18;;;;;;;43.22;23.95;;;9.30;65.20;;;;;;6233725;23;20007;-56
2022/01/17 11:55:47;;;;;;;55.33;25.25;;;9.30;65.20;;;;;;6233730;23;19996;-59
2022/01/17 11:58:26;;;;;;;52.08;25.48;;;9.30;65.30;;;;;;6233726;23;20515;-56
2022/01/17 12:00:58;;;;;;;49.97;26.42;;;9.30;65.40;;;;;;6234351;23;20190;-56
2022/01/17 12:03:43;;;;;;;50.03;24.38;;;9.30;65.60;;;;;;6229807;23;20004;-57
2022/01/17 12:06:35;;;;;;;48.58;24.15;;;9.30;65.80;;;;;;6244127;23;20008;-57
2022/01/17 12:09:29;;;;;;;47.50;24.02;;;9.30;66.00;;;;;;6231671;23;20067;-56
2022/01/17 12:12:07;;;;;;;53.47;25.13;;;9.30;66.20;;;;;;6230791;23;20020;-57
2022/01/17 12:14:41;;;;;;;48.72;24.38;;;9.30;66.30;;;;;;6244587;23;20001;-58
2022/01/17 12:17:19;;;;;;;49.25;24.65;;;9.30;66.40;;;;;;6237417;22;20019;-56
2022/01/17 12:20:04;;;;;;;49.22;23.88;;;9.30;66.60;;;;;;6233613;22;20000;-57
2022/01/17 12:22:32;;;;;;;58.60;24.10;;;9.30;66.90;;;;;;6235109;23;20430;-57
2022/01/17 12:25:00;;;;;;;48.60;25.33;;;9.30;66.90;;;;;;6233000;23;20430;-58
2022/01/17 12:27:28;;;;;;;52.88;24.02;;;9.30;67.00;;;;;;6232249;23;20023;-57
2022/01/17 12:30:11;;;;;;;51.80;25.05;;;9.30;67.00;;;;;;6226649;23;20343;-58
2022/01/17 12:32:39;;;;;;;54.50;25.77;;;9.20;67.40;;;;;;6237508;23;20004;-58
2022/01/17 12:35:06;;;;;;;58.17;25.35;;;9.20;67.50;;;;;;6227644;23;20007;-59
2022/01/17 12:38:06;;;;;;;48.55;24.20;;;9.20;67.50;;;;;;6228058;23;20011;-57
2022/01/17 12:40:43;;;;;;;54.17;25.38;;;9.20;67.60;;;;;;6238445;23;20008;-57
2022/01/17 12:43:15;;;;;;;52.65;24.92;;;9.20;67.60;;;;;;6226497;22;20174;-57
2022/01/17 12:45:45;;;;;;;45.75;23.35;;;9.20;67.60;;;;;;6228503;23;20015;-59
2022/01/17 12:48:15;;;;;;;51.17;25.00;;;9.20;67.60;;;;;;6226192;22;20419;-59
2022/01/17 12:50:44;;;;;;;55.97;27.10;;;9.20;67.90;;;;;;6227610;22;20433;-59
2022/01/17 12:53:13;;;;;;;47.85;24.70;;;9.10;68.10;;;;;;6228541;23;20004;-57
2022/01/17 12:55:47;;;;;;;50.20;25.20;;;9.10;68.20;;;;;;6226365;23;20008;-58
2022/01/17 12:58:23;;;;;;;56.75;26.17;;;9.10;68.20;;;;;;6239935;23;20016;-58
2022/01/17 13:01:08;;;;;;;54.13;26.08;;;9.10;68.40;;;;;;6239628;23;20008;-57
2022/01/17 13:03:37;;;;;;;51.72;26.15;;;9.10;68.60;;;;;;6239985;23;20001;-58
2022/01/17 13:06:10;;;;;;;52.53;24.83;;;9.10;68.60;;;;;;6232314;23;20003;-57
2022/01/17 13:08:40;;;;;;;49.20;24.40;;;9.10;68.80;;;;;;6242793;23;19996;-58
2022/01/17 13:11:14;;;;;;;46.60;24.75;;;9.00;68.90;;;;;;6232415;22;20007;-58
2022/01/17 13:14:01;;;;;;;47.28;24.83;;;9.00;69.10;;;;;;6244047;23;20421;-58
2022/01/17 13:16:50;;;;;;;48.13;24.25;;;9.10;69.40;;;;;;6241866;22;20000;-57
2022/01/17 13:19:17;;;;;;;47.88;24.95;;;9.10;69.30;;;;;;6232087;22;20026;-56
2022/01/17 13:21:45;;;;;;;53.67;24.65;;;9.10;69.20;;;;;;6234648;23;20004;-58
2022/01/17 13:24:17;;;;;;;46.25;26.20;;;9.10;69.20;;;;;;6234651;23;20003;-56
2022/01/17 13:26:57;;;;;;;45.75;23.58;;;9.10;69.20;;;;;;6233982;22;20004;-57
2022/01/17 13:29:24;;;;;;;56.38;26.02;;;9.10;69.30;;;;;;6231730;22;20012;-57
2022/01/17 13:31:51;;;;;;;61.15;26.23;;;9.10;69.30;;;;;;6228631;23;20011;-57
2022/01/17 13:34:30;;;;;;;51.40;26.45;;;9.10;69.50;;;;;;6234189;23;20008;-58
2022/01/17 13:37:06;;;;;;;51.10;25.75;;;9.10;69.50;;;;;;6233336;22;20008;-58
2022/01/17 13:39:32;;;;;;;48.08;27.02;;;9.10;69.70;;;;;;6233256;22;20019;-56
2022/01/17 13:42:01;;;;;;;49.13;25.42;;;9.10;69.60;;;;;;6234460;23;20014;-56
2022/01/17 13:44:30;;;;;;;48.42;24.63;;;9.10;69.60;;;;;;6234054;23;20000;-57
2022/01/17 13:47:05;;;;;;;48.78;25.50;;;9.10;69.70;;;;;;6232162;23;20000;-56
2022/01/17 13:49:44;;;;;;;53.97;25.88;;;9.10;69.90;;;;;;6235655;23;19992;-58
2022/01/17 13:52:12;;;;;;;53.53;26.25;;;9.10;69.80;;;;;;6235121;22;20293;-56
2022/01/17 13:54:47;;;;;;;49.63;24.60;;;9.10;69.80;;;;;;6233744;23;20004;-56
2022/01/17 13:57:18;;;;;;;57.50;25.40;;;9.10;69.90;;;;;;6234517;22;20008;-56
2022/01/17 14:00:08;;;;;;;48.10;25.75;;;9.10;69.90;;;;;;6244836;23;20439;-56
2022/01/17 14:02:36;;;;;;;47.70;24.02;;;9.10;70.00;;;;;;6234412;23;20008;-57
2022/01/17 14:05:04;;;;;;;47.08;24.85;;;9.10;69.90;;;;;;6234612;23;20019;-56
2022/01/17 14:07:32;;;;;;;43.72;23.83;;;9.10;70.00;;;;;;6233890;23;20000;-58
2022/01/17 14:09:59;;;;;;;44.65;24.95;;;9.10;70.10;;;;;;6235724;23;20015;-59
2022/01/17 14:12:28;;;;;;;51.33;26.98;;;9.00;70.10;;;;;;6235239;23;20015;-58
2022/01/17 14:14:57;;;;;;;64.70;29.50;;;9.00;70.20;;;;;;6235754;22;20012;-57
2022/01/17 14:17:30;;;;;;;51.53;27.85;;;9.00;70.30;;;;;;6231802;22;20357;-56
2022/01/17 14:20:16;;;;;;;60.23;28.00;;;9.00;70.40;;;;;;6235434;23;20000;-57
2022/01/17 14:22:50;;;;;;;54.25;28.13;;;9.00;70.60;;;;;;6235968;22;20514;-57
2022/01/17 14:25:21;;;;;;;54.15;28.08;;;9.00;70.70;;;;;;6235933;23;20337;-57
2022/01/17 14:28:04;;;;;;;57.05;29.25;;;9.00;70.70;;;;;;6243206;23;19996;-58
2022/01/17 14:30:33;;;;;;;62.17;28.30;;;9.00;70.90;;;;;;6246123;23;20317;-56
2022/01/17 14:33:17;;;;;;;56.08;29.08;;;9.00;70.80;;;;;;6233643;23;20064;-58
2022/01/17 14:36:02;;;;;;;;;;;9.00;70.80;;;;;;6236162;22;20012;-55
2022/01/17 14:38:28;;;;;;;57.88;27.63;;;9.00;70.70;;;;;;6235419;23;19954;-58
2022/01/17 14:40:54;;;;;;;47.78;26.45;;;9.00;70.40;;;;;;6235155;23;20008;-58
2022/01/17 14:43:31;;;;;;;50.80;27.25;;;9.10;70.60;;;;;;6234745;23;20004;-56
2022/01/17 14:46:02;;;;;;;53.75;27.77;;;9.00;70.70;;;;;;6244869;23;20329;-58
2022/01/17 14:48:35;;;;;;;47.30;26.33;;;9.00;70.80;;;;;;6231704;23;19992;-56
2022/01/17 14:51:20;;;;;;;52.47;26.13;;;9.00;70.80;;;;;;6245609;23;19999;-60
2022/01/17 14:53:53;;;;;;;45.15;26.42;;;9.00;70.90;;;;;;6234612;22;20421;-59
2022/01/17 15:02:08;;;;;;;57.90;27.33;;;9.00;71.00;;;;;;6243848;23;20491;-59
2022/01/17 15:04:38;;;;;;;51.75;27.02;;;9.10;71.20;;;;;;6235565;22;20019;-59
2022/01/17 15:07:14;;;;;;;45.50;26.40;;;9.10;71.10;;;;;;6234360;23;20302;-58
2022/01/17 15:09:43;;;;;;;53.97;27.80;;;9.10;71.10;;;;;;6242850;23;20003;-57
2022/01/17 15:12:10;;;;;;;52.35;27.42;;;9.10;70.90;;;;;;6232464;23;19999;-57
2022/01/17 15:14:38;;;;;;;47.78;26.45;;;9.10;70.90;;;;;;6232786;23;20000;-59
2022/01/17 15:17:27;;;;;;;50.97;26.85;;;9.10;70.80;;;;;;6232877;22;20024;-58
2022/01/17 15:19:53;;;;;;;58.58;27.75;;;9.20;70.90;;;;;;6235282;23;20425;-58
2022/01/17 15:22:20;;;;;;;49.80;27.02;;;9.20;70.70;;;;;;6235663;23;20015;-53
2022/01/17 15:24:46;;;;;;;62.65;28.23;;;9.20;70.80;;;;;;6235554;23;20000;-56
2022/01/17 15:27:13;;;;;;;46.88;25.77;;;9.20;70.70;;;;;;6230840;23;20333;-57
2022/01/17 15:29:40;;;;;;;55.45;26.25;;;9.20;70.70;;;;;;6235234;23;19997;-59
2022/01/17 15:32:10;;;;;;;51.17;27.33;;;9.20;70.60;;;;;;6233305;23;20007;-59
2022/01/17 15:34:37;;;;;;;53.00;26.15;;;9.20;70.60;;;;;;6235203;22;20000;-58
2022/01/17 15:37:05;;;;;;;47.22;25.48;;;9.20;70.60;;;;;;6234563;23;20000;-58
2022/01/17 15:39:31;;;;;;;53.83;26.92;;;9.20;70.50;;;;;;6234276;23;20421;-58
2022/01/17 15:42:04;;;;;;;58.30;28.25;;;9.20;70.60;;;;;;6233369;23;20000;-57
2022/01/17 15:44:33;;;;;;;46.35;25.55;;;9.20;70.60;;;;;;6244956;23;20307;-56
2022/01/17 15:47:01;;;;;;;60.55;27.23;;;9.20;70.60;;;;;;6231637;22;20358;-57
2022/01/17 15:49:27;;;;;;;57.63;26.55;;;9.20;70.60;;;;;;6234067;23;20007;-55
2022/01/17 15:51:54;;;;;;;44.28;25.70;;;9.20;70.70;;;;;;6234536;23;20011;-58
2022/01/17 15:54:20;;;;;;;55.42;27.58;;;9.20;70.80;;;;;;6234789;23;20000;-56
2022/01/17 15:56:51;;;;;;;55.53;25.80;;;9.20;70.80;;;;;;6233992;22;20023;-58
2022/01/17 15:59:19;;;;;;;74.60;31.38;;;9.20;70.80;;;;;;6232473;22;20008;-56
2022/01/17 16:01:46;;;;;;;71.13;27.58;;;9.20;70.80;;;;;;6231658;23;19996;-55
2022/01/17 16:04:12;;;;;;;61.15;28.40;;;9.20;70.90;;;;;;6232160;23;20007;-59
2022/01/17 16:06:38;;;;;;;72.25;29.55;;;9.20;70.90;;;;;;6233503;23;20015;-57
2022/01/17 16:09:04;;;;;;;65.70;28.00;;;9.20;70.90;;;;;;6232968;23;20004;-57
2022/01/17 16:11:37;;;;;;;59.25;27.70;;;9.20;70.90;;;;;;6234594;23;20008;-56
2022/01/17 16:14:07;;;;;;;57.95;26.83;;;9.20;70.90;;;;;;6244648;23;20007;-57
2022/01/17 16:16:34;;;;;;;61.67;28.92;;;9.20;71.00;;;;;;6233700;22;20474;-57
2022/01/17 16:19:02;;;;;;;58.92;27.13;;;9.20;70.90;;;;;;6231786;22;20008;-56
2022/01/17 16:21:28;;;;;;;68.13;27.80;;;9.20;70.90;;;;;;6233112;23;20310;-57
2022/01/17 16:23:55;;;;;;;58.83;28.33;;;9.30;71.00;;;;;;6234721;23;20031;-55
2022/01/17 16:26:22;;;;;;;51.13;25.92;;;9.20;71.00;;;;;;6234451;23;20000;-58
2022/01/17 16:28:48;;;;;;;57.38;26.52;;;9.30;71.10;;;;;;6233379;22;20015;-57
2022/01/17 16:31:15;;;;;;;58.05;26.10;;;9.30;71.10;;;;;;6206231;23;20015;-56
2022/01/17 16:33:44;;;;;;;58.15;28.00;;;9.30;71.10;;;;;;6233517;23;19996;-56
2022/01/17 16:36:10;;;;;;;48.47;26.65;;;9.30;71.10;;;;;;6234089;22;20035;-58
2022/01/17 16:38:38;;;;;;;62.47;27.98;;;9.20;71.10;;;;;;6232835;23;20004;-55
2022/01/17 16:41:04;;;;;;;60.75;26.67;;;9.20;71.20;;;;;;6234243;22;20004;-58
2022/01/17 16:43:30;;;;;;;55.97;26.48;;;9.20;71.30;;;;;;6235184;23;20004;-56
2022/01/17 16:45:57;;;;;;;64.40;27.25;;;9.20;71.30;;;;;;6231721;23;20007;-56
2022/01/17 16:48:24;;;;;;;67.10;27.75;;;9.20;71.40;;;;;;6231511;23;19997;-56
2022/01/17 16:50:50;;;;;;;70.82;30.27;;;9.20;71.40;;;;;;6228368;23;19997;-58
2022/01/17 16:53:16;;;;;;;63.47;29.13;;;9.20;71.50;;;;;;6230954;23;20008;-58
2022/01/17 16:55:43;;;;;;;68.38;28.25;;;9.20;71.50;;;;;;6234165;23;20562;-57
2022/01/17 16:58:09;;;;;;;60.95;27.95;;;9.20;71.60;;;;;;6231689;22;20333;-57
2022/01/17 17:00:36;;;;;;;63.67;27.08;;;9.20;71.60;;;;;;6231403;22;20004;-58
2022/01/17 17:03:03;;;;;;;59.15;25.00;;;9.20;71.70;;;;;;6231455;23;20007;-58
2022/01/17 17:05:29;;;;;;;58.58;25.92;;;9.30;71.70;;;;;;6229731;22;20023;-59
2022/01/17 17:07:56;;;;;;;58.45;25.05;;;9.30;71.70;;;;;;6232406;22;20480;-56
2022/01/17 17:10:24;;;;;;;66.03;25.83;;;9.30;71.70;;;;;;6234535;22;20238;-57
2022/01/17 17:12:52;;;;;;;68.38;27.27;;;9.30;71.70;;;;;;6232147;22;20019;-56
2022/01/17 17:15:18;;;;;;;66.40;27.33;;;9.30;71.70;;;;;;6233217;22;20004;-58
2022/01/17 17:17:44;;;;;;;68.72;26.25;;;9.30;71.70;;;;;;6232268;22;20352;-58
2022/01/17 17:20:12;;;;;;;61.00;25.70;;;9.30;71.70;;;;;;6234781;23;19996;-57
2022/01/17 17:22:40;;;;;;;60.20;26.15;;;9.30;71.70;;;;;;6234400;23;20008;-56
2022/01/17 17:25:07;;;;;;;67.78;27.08;;;9.30;71.70;;;;;;6234508;23;20008;-57
2022/01/17 17:27:35;;;;;;;55.75;25.80;;;9.30;71.70;;;;;;6233373;23;20012;-59
2022/01/17 17:30:03;;;;;;;65.28;26.63;;;9.40;71.70;;;;;;6234082;22;20012;-58
2022/01/17 17:32:29;;;;;;;60.10;28.05;;;9.30;71.60;;;;;;6230567;23;20003;-56
2022/01/17 17:34:55;;;;;;;47.33;25.10;;;9.40;71.70;;;;;;6232983;23;20005;-58
2022/01/17 17:37:22;;;;;;;63.40;27.70;;;9.40;71.80;;;;;;6231312;22;20004;-57
2022/01/17 17:39:48;;;;;;;63.92;27.08;;;9.40;71.90;;;;;;6232402;23;20020;-56
2022/01/17 17:42:15;;;;;;;63.80;27.50;;;9.40;71.80;;;;;;6230554;23;20000;-56
2022/01/17 17:44:44;;;;;;;64.82;25.98;;;9.40;71.80;;;;;;6234115;23;20003;-58
2022/01/17 17:47:11;;;;;;;65.80;26.33;;;9.40;71.80;;;;;;6228456;23;20035;-58
2022/01/17 17:49:38;;;;;;;67.90;26.80;;;9.40;71.80;;;;;;6232845;23;20000;-56
2022/01/17 17:52:05;;;;;;;51.20;24.77;;;9.40;71.70;;;;;;6233307;23;20008;-57
2022/01/17 17:54:33;;;;;;;58.42;25.48;;;9.50;71.80;;;;;;6234448;23;20481;-57
2022/01/17 17:57:04;;;;;;;69.03;25.70;;;9.40;71.70;;;;;;6233471;22;20008;-55
2022/01/17 17:59:31;;;;;;;66.85;25.60;;;9.40;71.90;;;;;;6241923;23;20011;-57
2022/01/17 18:01:57;;;;;;;53.53;23.85;;;9.40;71.90;;;;;;6232616;23;20024;-58
2022/01/17 18:04:24;;;;;;;61.65;24.33;;;9.40;72.00;;;;;;6233683;23;20007;-58
2022/01/17 18:06:50;;;;;;;67.68;27.10;;;9.40;72.10;;;;;;6234254;23;20015;-57
2022/01/17 18:09:19;;;;;;;54.65;23.55;;;9.40;72.10;;;;;;6231862;22;20425;-55
2022/01/17 18:11:48;;;;;;;63.90;24.63;;;9.40;72.20;;;;;;6233151;22;20011;-58
2022/01/17 18:14:14;;;;;;;52.10;23.90;;;9.40;72.20;;;;;;6233161;23;19992;-58
2022/01/17 18:16:41;;;;;;;55.00;22.77;;;9.40;72.30;;;;;;6231640;22;20019;-56
2022/01/17 18:19:07;;;;;;;61.00;24.75;;;9.40;72.30;;;;;;6241950;23;20007;-58
2022/01/17 18:21:34;;;;;;;70.53;23.88;;;9.40;72.40;;;;;;6234778;23;20004;-57
2022/01/17 18:24:00;;;;;;;60.95;24.77;;;9.40;72.40;;;;;;6234075;22;20008;-59
2022/01/17 18:26:27;;;;;;;60.28;21.73;;;9.40;72.50;;;;;;6232075;23;20008;-58
2022/01/17 18:28:55;;;;;;;68.15;22.08;;;9.40;72.60;;;;;;6231954;23;20003;-58
2022/01/17 18:31:22;;;;;;;65.43;23.50;;;9.40;72.70;;;;;;6233194;23;19992;-57
2022/01/17 18:33:48;;;;;;;49.83;19.30;;;9.40;72.80;;;;;;6234971;23;19993;-56
2022/01/17 18:36:14;;;;;;;46.33;18.88;;;9.40;73.00;;;;;;6234832;23;20003;-56
2022/01/17 18:38:43;;;;;;;50.70;17.88;;;9.30;73.00;;;;;;6234761;23;20310;-57
2022/01/17 18:41:11;;;;;;;56.95;18.05;;;9.40;73.20;;;;;;6232591;23;20337;-59
2022/01/17 18:43:37;;;;;;;49.20;15.65;;;9.40;73.20;;;;;;6236698;23;19996;-58
2022/01/17 18:46:04;;;;;;;65.80;17.92;;;9.30;73.20;;;;;;6232558;23;20333;-59
2022/01/17 18:48:31;;;;;;;49.00;16.10;;;9.40;73.30;;;;;;6231657;23;20117;-58
2022/01/17 18:51:04;;;;;;;58.17;17.20;;;9.40;73.20;;;;;;6232689;23;20452;-59
2022/01/17 18:53:33;;;;;;;48.38;16.23;;;9.40;73.30;;;;;;6231986;23;20373;-59
2022/01/17 18:56:00;;;;;;;60.67;16.83;;;9.40;73.30;;;;;;6235780;23;19996;-57
2022/01/17 18:58:27;;;;;;;49.47;16.80;;;9.40;73.20;;;;;;6234064;23;19996;-56
2022/01/17 19:00:54;;;;;;;63.53;16.92;;;9.40;73.10;;;;;;6232744;22;20015;-57
2022/01/17 19:03:20;;;;;;;57.63;17.33;;;9.40;73.10;;;;;;6234623;22;20338;-58
2022/01/17 19:05:47;;;;;;;56.42;16.52;;;9.40;73.10;;;;;;6230957;23;20012;-59
2022/01/17 19:08:13;;;;;;;51.53;15.10;;;9.40;73.10;;;;;;6234391;23;20004;-57
2022/01/17 19:10:39;;;;;;;53.13;16.40;;;9.40;73.20;;;;;;6236208;22;20005;-57
2022/01/17 19:13:06;;;;;;;46.65;14.63;;;9.40;73.20;;;;;;6234983;22;20004;-57
2022/01/17 19:15:32;;;;;;;48.45;13.57;;;9.40;73.30;;;;;;6233578;22;20008;-57
2022/01/17 19:23:06;;;;;;;46.22;13.63;;;9.50;73.30;;;;;;6234767;23;20041;-57
2022/01/17 19:25:33;;;;;;;49.63;13.32;;;9.50;73.30;;;;;;6230363;23;20011;-59